Time;durP1;ratioP1;P1;durP2;ratioP2;P2;SDS_P1;SDS_P2;PMS_P1;PMS_P2;Temp;Humidity;BMP_temperature;BMP_pressure;BME280_temperature;BME280_humidity;BME280_pressure;Samples;Min_cycle;Max_cycle;Signal;HPM_P1;HPM_P2
2023/06/28 00:01:36;;;;;;;4.70;2.00;;;21.70;92.50;;;;;;5024964;28;20208;-28
2023/06/28 00:04:07;;;;;;;4.20;2.22;;;21.70;92.50;;;;;;5043022;28;20672;-28
2023/06/28 00:06:34;;;;;;;3.75;2.00;;;21.70;92.60;;;;;;5043093;28;20711;-29
2023/06/28 00:09:04;;;;;;;5.28;2.40;;;21.60;92.80;;;;;;5041202;28;20589;-29
2023/06/28 00:11:31;;;;;;;3.90;2.25;;;21.60;92.80;;;;;;5041304;28;20558;-28
2023/06/28 00:13:59;;;;;;;4.43;2.03;;;21.60;92.60;;;;;;5043093;28;20704;-28
2023/06/28 00:16:26;;;;;;;5.32;2.05;;;21.50;92.60;;;;;;5040948;28;20233;-28
2023/06/28 00:18:53;;;;;;;2.78;2.20;;;21.50;92.70;;;;;;5040960;28;20218;-29
2023/06/28 00:21:22;;;;;;;4.03;2.08;;;21.50;92.70;;;;;;5040823;28;20203;-28
2023/06/28 00:23:52;;;;;;;4.10;2.30;;;21.50;92.80;;;;;;5040947;28;20263;-28
2023/06/28 00:26:19;;;;;;;3.53;1.85;;;21.50;92.80;;;;;;5042524;28;20674;-29
2023/06/28 00:28:48;;;;;;;3.33;1.98;;;21.50;92.90;;;;;;5040779;28;20242;-29
2023/06/28 00:31:15;;;;;;;4.60;2.30;;;21.50;93.00;;;;;;5042168;28;20200;-29
2023/06/28 00:33:50;;;;;;;5.03;2.30;;;21.40;93.00;;;;;;5041025;28;20592;-28
2023/06/28 00:36:18;;;;;;;3.38;2.15;;;21.50;93.00;;;;;;5042553;28;20204;-29
2023/06/28 00:38:47;;;;;;;4.13;2.05;;;21.40;92.90;;;;;;5040895;28;20216;-29
2023/06/28 00:41:19;;;;;;;5.40;2.47;;;21.40;93.00;;;;;;5041138;28;20364;-29
2023/06/28 00:43:49;;;;;;;3.58;1.90;;;21.40;93.00;;;;;;5040910;28;20192;-28
2023/06/28 00:46:17;;;;;;;5.18;2.58;;;21.40;93.00;;;;;;5057274;28;20196;-28
2023/06/28 00:48:48;;;;;;;4.82;2.03;;;21.40;93.00;;;;;;5041549;28;20993;-28
2023/06/28 00:51:19;;;;;;;4.05;2.20;;;21.40;93.10;;;;;;5044880;28;20204;-28
2023/06/28 00:53:49;;;;;;;5.63;2.38;;;21.30;93.30;;;;;;5044305;28;20234;-28
2023/06/28 00:56:16;;;;;;;4.47;2.03;;;21.30;93.20;;;;;;5046385;28;20199;-29
2023/06/28 00:58:45;;;;;;;5.40;2.30;;;21.30;93.20;;;;;;5044284;28;20258;-28
2023/06/28 01:01:17;;;;;;;6.95;2.50;;;21.40;93.30;;;;;;5046438;28;20207;-28
2023/06/28 01:03:45;;;;;;;4.78;2.17;;;21.30;93.30;;;;;;5044287;28;20398;-28
2023/06/28 01:06:21;;;;;;;5.13;2.33;;;21.30;93.40;;;;;;5044485;28;20711;-28
2023/06/28 01:08:52;;;;;;;5.22;2.05;;;21.30;93.50;;;;;;5045988;28;20299;-28
2023/06/28 01:11:25;;;;;;;5.20;2.38;;;21.30;93.40;;;;;;5045772;28;20741;-28
2023/06/28 01:13:54;;;;;;;5.07;2.13;;;21.30;93.40;;;;;;5044092;28;20203;-29
2023/06/28 01:16:24;;;;;;;6.18;2.08;;;21.30;93.50;;;;;;5044275;28;20736;-28
2023/06/28 01:18:52;;;;;;;5.22;2.00;;;21.30;93.50;;;;;;5060766;28;20303;-28
2023/06/28 01:21:22;;;;;;;4.38;2.08;;;21.30;93.50;;;;;;5044046;28;20204;-29
2023/06/28 01:23:52;;;;;;;4.70;2.30;;;21.30;93.50;;;;;;5043981;28;20294;-29
2023/06/28 01:26:22;;;;;;;4.00;2.13;;;21.20;93.50;;;;;;5045300;28;20208;-29
2023/06/28 01:28:50;;;;;;;3.10;1.80;;;21.20;93.50;;;;;;5045330;28;20368;-28
2023/06/28 01:31:18;;;;;;;5.85;2.03;;;21.20;93.50;;;;;;5045422;28;20203;-28
2023/06/28 01:33:48;;;;;;;5.03;2.05;;;21.20;93.50;;;;;;5043595;28;20238;-29
2023/06/28 01:36:15;;;;;;;7.13;2.42;;;21.20;93.50;;;;;;5045266;28;20200;-29
2023/06/28 01:38:53;;;;;;;4.97;2.17;;;21.20;93.50;;;;;;5043673;28;20605;-29
2023/06/28 01:41:26;;;;;;;5.18;2.20;;;21.20;93.60;;;;;;5045489;28;20224;-29
2023/06/28 01:43:55;;;;;;;3.60;2.00;;;21.20;93.70;;;;;;5045379;28;20200;-28
2023/06/28 01:46:25;;;;;;;5.47;2.45;;;21.20;93.70;;;;;;5045048;28;20207;-28
2023/06/28 01:48:55;;;;;;;5.53;2.40;;;21.20;93.80;;;;;;5043887;28;20266;-28
2023/06/28 01:51:25;;;;;;;4.93;2.05;;;21.20;93.90;;;;;;5043746;28;20287;-28
2023/06/28 01:53:52;;;;;;;4.82;2.25;;;21.20;93.90;;;;;;5045410;28;20261;-28
2023/06/28 01:56:19;;;;;;;4.85;2.20;;;21.20;93.90;;;;;;5045393;28;20206;-28
2023/06/28 01:58:47;;;;;;;4.47;1.90;;;21.20;93.90;;;;;;5043403;28;20204;-29
2023/06/28 02:01:16;;;;;;;4.43;2.25;;;21.20;93.90;;;;;;5042581;28;20240;-29
2023/06/28 02:03:46;;;;;;;4.40;2.03;;;21.20;94.00;;;;;;5044902;28;20674;-28
2023/06/28 02:06:16;;;;;;;5.05;2.80;;;21.20;94.10;;;;;;5043601;28;20196;-28
2023/06/28 02:08:45;;;;;;;4.38;2.15;;;21.20;94.20;;;;;;5044978;28;20200;-29
2023/06/28 02:11:17;;;;;;;3.72;2.00;;;21.20;94.20;;;;;;5043309;28;20274;-28
2023/06/28 02:13:47;;;;;;;4.63;2.28;;;21.20;94.20;;;;;;5044364;28;20204;-29
2023/06/28 02:16:15;;;;;;;3.05;2.20;;;21.20;94.30;;;;;;5043420;28;20615;-29
2023/06/28 02:18:45;;;;;;;4.85;2.40;;;21.20;94.40;;;;;;5044250;28;20197;-28
2023/06/28 02:21:16;;;;;;;3.50;1.95;;;21.20;94.30;;;;;;5043006;28;20319;-29
2023/06/28 02:23:45;;;;;;;6.03;2.45;;;21.20;94.40;;;;;;5044238;28;20244;-28
2023/06/28 02:26:12;;;;;;;4.30;2.50;;;21.20;94.40;;;;;;5042672;28;20204;-28
2023/06/28 02:28:45;;;;;;;6.40;2.50;;;21.20;94.40;;;;;;5043135;28;20354;-28
2023/06/28 02:31:16;;;;;;;4.93;2.13;;;21.20;94.50;;;;;;5044762;28;20228;-28
2023/06/28 02:33:46;;;;;;;5.60;2.55;;;21.20;94.50;;;;;;5042805;28;20626;-28
2023/06/28 02:36:13;;;;;;;4.07;2.03;;;21.20;94.50;;;;;;5044423;28;20192;-28
2023/06/28 02:38:43;;;;;;;5.13;2.00;;;21.20;94.60;;;;;;5044114;28;20681;-29
2023/06/28 02:41:11;;;;;;;4.68;2.40;;;21.20;94.60;;;;;;5044364;28;20693;-29
2023/06/28 02:43:40;;;;;;;4.35;2.35;;;21.20;94.60;;;;;;5044126;28;20694;-29
2023/06/28 02:46:13;;;;;;;5.40;2.38;;;21.10;94.60;;;;;;5044705;28;20254;-29
2023/06/28 02:48:43;;;;;;;5.93;2.42;;;21.10;94.60;;;;;;5042766;28;20755;-29
2023/06/28 02:51:14;;;;;;;5.68;2.25;;;21.10;94.60;;;;;;5058406;28;20622;-29
2023/06/28 02:53:42;;;;;;;4.70;1.92;;;21.10;94.60;;;;;;5044037;28;20200;-29
2023/06/28 02:56:13;;;;;;;4.82;1.92;;;21.10;94.50;;;;;;5044099;28;20557;-29
2023/06/28 02:58:43;;;;;;;5.15;2.45;;;21.10;94.60;;;;;;5043957;28;20615;-29
2023/06/28 03:01:11;;;;;;;4.95;2.30;;;21.00;94.50;;;;;;5043746;28;20295;-29
2023/06/28 03:03:42;;;;;;;4.57;2.15;;;21.00;94.50;;;;;;5044016;28;20215;-28
2023/06/28 03:06:09;;;;;;;3.28;2.10;;;21.00;94.50;;;;;;5043513;28;20200;-28
2023/06/28 03:08:41;;;;;;;4.18;2.15;;;21.00;94.50;;;;;;5043337;28;20295;-29
2023/06/28 03:11:09;;;;;;;4.53;2.33;;;20.90;94.50;;;;;;5057829;28;20234;-29
2023/06/28 03:13:36;;;;;;;5.90;2.78;;;20.90;94.50;;;;;;5041711;28;20310;-28
2023/06/28 03:16:04;;;;;;;3.90;2.22;;;20.90;94.50;;;;;;5042250;28;20306;-29
2023/06/28 03:18:33;;;;;;;3.97;1.83;;;20.90;94.50;;;;;;5041457;28;20199;-29
2023/06/28 03:21:01;;;;;;;4.50;2.10;;;20.90;94.50;;;;;;5041565;28;20200;-29
2023/06/28 03:23:28;;;;;;;4.65;2.17;;;20.80;94.50;;;;;;5043189;28;20767;-29
2023/06/28 03:25:55;;;;;;;4.85;2.33;;;20.80;94.50;;;;;;5043217;28;20200;-28
2023/06/28 03:28:26;;;;;;;5.00;2.00;;;20.80;94.50;;;;;;5043300;28;20702;-29
2023/06/28 03:30:56;;;;;;;3.60;1.73;;;20.80;94.50;;;;;;5041613;28;20286;-29
2023/06/28 03:33:28;;;;;;;3.90;1.98;;;20.80;94.50;;;;;;5043213;28;20200;-29
2023/06/28 03:35:57;;;;;;;4.95;2.13;;;20.80;94.80;;;;;;5043400;28;20303;-28
2023/06/28 03:38:27;;;;;;;4.25;2.00;;;20.80;94.50;;;;;;5043208;28;20266;-28
2023/06/28 03:41:02;;;;;;;4.05;2.17;;;20.70;94.50;;;;;;5043516;28;20262;-29
2023/06/28 03:43:29;;;;;;;4.40;1.85;;;20.70;94.50;;;;;;5041485;28;20200;-29
2023/06/28 03:45:57;;;;;;;6.13;2.15;;;20.70;94.60;;;;;;5041143;28;20578;-29
2023/06/28 03:48:29;;;;;;;4.88;2.10;;;20.70;94.60;;;;;;5041275;28;20201;-29
2023/06/28 03:51:01;;;;;;;5.22;2.42;;;20.70;94.60;;;;;;5042908;28;20694;-32
2023/06/28 03:53:30;;;;;;;5.63;2.30;;;20.70;94.60;;;;;;5041156;28;20261;-32
2023/06/28 03:56:00;;;;;;;3.40;2.00;;;20.70;94.60;;;;;;5042612;28;20241;-32
2023/06/28 03:58:27;;;;;;;3.17;1.92;;;20.70;94.60;;;;;;5057621;28;20295;-32
2023/06/28 04:00:55;;;;;;;4.03;1.95;;;20.70;94.60;;;;;;5041183;28;20272;-31
2023/06/28 04:03:22;;;;;;;5.60;1.85;;;20.70;94.60;;;;;;5057755;28;20204;-32
2023/06/28 04:05:54;;;;;;;4.05;2.10;;;20.70;94.60;;;;;;5042795;28;20206;-32
2023/06/28 04:08:26;;;;;;;4.90;2.05;;;20.70;94.60;;;;;;5042202;28;20207;-32
2023/06/28 04:10:58;;;;;;;6.20;2.20;;;20.70;94.60;;;;;;5042139;28;20220;-32
2023/06/28 04:13:25;;;;;;;2.63;1.90;;;20.70;94.70;;;;;;5040674;28;20295;-33
2023/06/28 04:15:53;;;;;;;4.53;2.05;;;20.70;94.60;;;;;;5041574;28;20204;-35
2023/06/28 04:18:21;;;;;;;3.50;1.70;;;20.70;94.70;;;;;;5042332;28;20602;-32
2023/06/28 04:20:48;;;;;;;3.75;1.90;;;20.70;94.70;;;;;;5042485;28;20240;-33
2023/06/28 04:23:20;;;;;;;5.55;1.98;;;20.70;94.70;;;;;;5042226;28;20286;-35
2023/06/28 04:25:52;;;;;;;4.40;2.00;;;20.70;94.70;;;;;;5046612;28;20262;-40
2023/06/28 04:28:19;;;;;;;7.22;2.38;;;20.80;94.80;;;;;;5061794;28;20204;-32
2023/06/28 04:30:51;;;;;;;5.13;1.90;;;20.80;94.70;;;;;;5046490;28;20228;-32
2023/06/28 04:33:22;;;;;;;5.00;2.33;;;20.80;94.80;;;;;;5046188;28;20265;-32
2023/06/28 04:35:56;;;;;;;7.18;2.00;;;20.80;94.80;;;;;;5046457;28;20282;-31
2023/06/28 04:38:24;;;;;;;5.90;2.15;;;20.80;94.80;;;;;;5046111;28;20690;-31
2023/06/28 04:40:55;;;;;;;3.75;2.08;;;20.80;94.80;;;;;;5044699;28;20297;-31
2023/06/28 04:43:23;;;;;;;5.60;2.03;;;20.80;94.80;;;;;;5045746;28;21080;-31
2023/06/28 04:45:55;;;;;;;6.40;2.00;;;20.80;94.70;;;;;;5044237;28;20296;-31
2023/06/28 04:48:23;;;;;;;5.15;1.85;;;20.80;94.80;;;;;;5046252;28;20226;-31
2023/06/28 04:50:51;;;;;;;5.30;2.20;;;20.80;94.80;;;;;;5045777;28;20220;-31
2023/06/28 04:53:20;;;;;;;5.22;2.03;;;20.80;94.80;;;;;;5046140;28;20290;-31
2023/06/28 04:55:48;;;;;;;4.80;2.30;;;20.80;94.80;;;;;;5044330;28;20593;-31
2023/06/28 04:58:18;;;;;;;6.07;2.33;;;20.80;94.80;;;;;;5060151;28;20196;-31
2023/06/28 05:00:45;;;;;;;3.75;2.40;;;20.80;95.20;;;;;;5046337;28;20910;-30
2023/06/28 05:03:15;;;;;;;3.92;2.25;;;20.90;94.90;;;;;;5043804;28;20200;-31
2023/06/28 05:05:43;;;;;;;5.25;2.13;;;20.90;94.90;;;;;;5045566;28;20231;-31
2023/06/28 05:08:13;;;;;;;3.50;2.00;;;20.90;94.90;;;;;;5044104;28;20246;-31
2023/06/28 05:10:41;;;;;;;4.22;1.80;;;20.90;95.00;;;;;;5043811;28;20703;-31
2023/06/28 05:13:08;;;;;;;7.38;2.88;;;20.90;95.00;;;;;;5045745;28;20235;-31
2023/06/28 05:15:38;;;;;;;4.38;2.22;;;20.90;95.00;;;;;;5045911;28;20204;-31
2023/06/28 05:18:08;;;;;;;4.68;2.40;;;20.90;94.90;;;;;;5043747;28;20200;-28
2023/06/28 05:20:38;;;;;;;6.70;2.30;;;20.90;95.00;;;;;;5044358;28;20200;-28
2023/06/28 05:23:18;;;;;;;7.55;2.38;;;21.00;95.10;;;;;;5043488;28;20248;-28
2023/06/28 05:25:45;;;;;;;5.93;2.25;;;21.00;95.20;;;;;;5059963;28;20204;-28
2023/06/28 05:28:14;;;;;;;3.63;2.20;;;21.00;95.10;;;;;;5045173;28;20196;-28
2023/06/28 05:30:45;;;;;;;4.00;1.90;;;21.00;95.10;;;;;;5044875;28;20788;-28
2023/06/28 05:33:15;;;;;;;4.47;1.95;;;21.00;95.10;;;;;;5043681;28;20651;-28
2023/06/28 05:35:48;;;;;;;4.40;2.10;;;21.00;95.10;;;;;;5045054;28;20200;-28
2023/06/28 05:38:15;;;;;;;4.03;2.15;;;21.10;95.20;;;;;;5045100;28;20200;-28
2023/06/28 05:40:42;;;;;;;5.15;2.10;;;21.10;95.20;;;;;;5045116;28;20277;-28
2023/06/28 05:43:20;;;;;;;5.90;2.05;;;21.10;95.20;;;;;;5043204;28;20207;-28
2023/06/28 05:45:50;;;;;;;6.28;2.33;;;21.10;95.20;;;;;;5043329;28;20235;-28
2023/06/28 05:48:19;;;;;;;4.57;2.33;;;21.20;95.30;;;;;;5044553;28;20250;-28
2023/06/28 05:50:46;;;;;;;5.05;2.50;;;21.20;95.30;;;;;;5044638;28;21054;-28
2023/06/28 05:53:14;;;;;;;4.82;2.22;;;21.20;95.40;;;;;;5044775;28;20196;-29
2023/06/28 05:55:43;;;;;;;3.92;2.08;;;21.30;95.40;;;;;;5043144;28;20650;-29
2023/06/28 05:58:10;;;;;;;5.57;2.40;;;21.30;95.50;;;;;;5044802;28;20863;-29
2023/06/28 06:00:38;;;;;;;4.95;2.25;;;21.30;95.50;;;;;;5042629;28;20277;-29
2023/06/28 06:03:07;;;;;;;7.15;2.70;;;21.30;95.60;;;;;;5044876;28;20517;-29
2023/06/28 06:05:37;;;;;;;5.25;2.53;;;21.30;95.60;;;;;;5044845;28;20508;-31
2023/06/28 06:08:05;;;;;;;6.43;2.08;;;21.30;95.60;;;;;;5059011;28;20347;-31
2023/06/28 06:10:33;;;;;;;5.43;2.30;;;21.30;95.50;;;;;;5042817;28;20705;-31
2023/06/28 06:13:00;;;;;;;4.68;2.30;;;21.40;95.60;;;;;;5042560;28;20205;-31
2023/06/28 06:15:27;;;;;;;7.00;2.88;;;21.40;95.70;;;;;;5043074;28;20230;-31
2023/06/28 06:17:54;;;;;;;4.00;2.10;;;21.40;95.60;;;;;;5044168;28;20196;-33
2023/06/28 06:20:22;;;;;;;7.78;2.58;;;21.40;95.60;;;;;;5059406;28;20291;-31
2023/06/28 06:22:49;;;;;;;5.68;2.47;;;21.40;95.70;;;;;;5042240;28;20231;-31
2023/06/28 06:25:19;;;;;;;8.38;2.80;;;21.50;95.80;;;;;;5042867;28;20246;-31
2023/06/28 06:27:46;;;;;;;5.25;2.22;;;21.50;95.80;;;;;;5044129;28;20622;-31
2023/06/28 06:30:16;;;;;;;8.65;2.72;;;21.50;95.80;;;;;;5043905;28;20196;-31
2023/06/28 06:32:43;;;;;;;6.85;2.53;;;21.50;95.90;;;;;;5042635;28;20757;-32
2023/06/28 06:35:17;;;;;;;5.97;2.60;;;21.50;95.90;;;;;;5044162;28;20238;-31
2023/06/28 06:37:47;;;;;;;7.60;2.97;;;21.60;95.90;;;;;;5043453;28;20698;-32
2023/06/28 06:40:20;;;;;;;6.65;2.85;;;21.60;95.90;;;;;;5042039;28;20231;-31
2023/06/28 06:42:47;;;;;;;8.80;3.40;;;21.70;96.00;;;;;;5044045;28;20207;-31
2023/06/28 06:45:19;;;;;;;9.07;2.90;;;21.70;95.90;;;;;;5043329;28;20533;-31
2023/06/28 06:47:46;;;;;;;11.00;3.30;;;21.70;95.90;;;;;;5043198;28;20206;-31
2023/06/28 06:50:18;;;;;;;9.48;3.28;;;21.80;96.00;;;;;;5043569;28;20242;-31
2023/06/28 06:52:47;;;;;;;4.28;2.40;;;21.80;96.10;;;;;;5043817;28;20222;-32
2023/06/28 06:55:17;;;;;;;8.50;3.03;;;21.80;96.00;;;;;;5043464;28;20196;-32
2023/06/28 06:57:47;;;;;;;6.03;3.03;;;21.90;96.10;;;;;;5043136;28;20215;-31
2023/06/28 07:00:16;;;;;;;4.13;2.50;;;21.90;96.10;;;;;;5043822;28;20196;-32
2023/06/28 07:02:46;;;;;;;5.85;3.00;;;22.00;96.10;;;;;;5042176;28;20212;-31
2023/06/28 07:05:17;;;;;;;6.05;2.70;;;22.00;96.20;;;;;;5057480;28;20228;-31
2023/06/28 07:07:45;;;;;;;6.60;3.03;;;22.00;96.10;;;;;;5043105;28;20200;-31
2023/06/28 07:10:14;;;;;;;6.80;3.45;;;22.10;96.20;;;;;;5043303;28;20200;-31
2023/06/28 07:12:44;;;;;;;7.65;3.15;;;22.10;96.20;;;;;;5043204;28;20250;-32
2023/06/28 07:15:14;;;;;;;5.32;3.00;;;22.10;96.30;;;;;;5043276;28;20555;-31
2023/06/28 07:17:44;;;;;;;7.57;3.70;;;22.10;96.20;;;;;;5042062;28;20204;-31
2023/06/28 07:20:14;;;;;;;8.07;3.13;;;22.20;96.30;;;;;;5041720;28;20255;-31
2023/06/28 07:22:41;;;;;;;7.22;3.67;;;22.20;96.20;;;;;;5042944;28;20664;-31
2023/06/28 07:25:08;;;;;;;9.00;3.17;;;22.20;96.30;;;;;;5043334;28;20648;-31
2023/06/28 07:27:36;;;;;;;5.25;3.13;;;22.30;96.30;;;;;;5041317;28;20220;-31
2023/06/28 07:30:07;;;;;;;6.38;3.00;;;22.30;96.30;;;;;;5040973;28;20581;-31
2023/06/28 07:32:37;;;;;;;8.23;3.20;;;22.30;96.40;;;;;;5057737;28;20698;-31
2023/06/28 07:35:11;;;;;;;7.95;3.25;;;22.40;96.40;;;;;;5041584;28;20623;-28
2023/06/28 07:37:41;;;;;;;6.80;3.05;;;22.40;96.40;;;;;;5042742;28;20215;-28
2023/06/28 07:40:08;;;;;;;6.70;3.00;;;22.50;96.50;;;;;;5041083;28;20211;-28
2023/06/28 07:42:37;;;;;;;7.70;3.25;;;22.50;96.40;;;;;;5040871;28;20238;-28
2023/06/28 07:45:07;;;;;;;7.40;3.17;;;22.50;96.40;;;;;;5040725;28;20208;-28
2023/06/28 07:47:36;;;;;;;7.95;3.75;;;22.60;96.50;;;;;;5041285;28;20200;-28
2023/06/28 07:50:09;;;;;;;6.80;3.00;;;22.60;96.50;;;;;;5042615;28;20204;-31
2023/06/28 07:52:36;;;;;;;7.82;3.13;;;22.60;96.50;;;;;;5042973;28;20268;-31
2023/06/28 07:55:07;;;;;;;7.15;3.13;;;22.70;96.60;;;;;;5040880;28;20290;-31
2023/06/28 07:57:37;;;;;;;7.72;3.33;;;22.70;96.50;;;;;;5042319;28;20196;-31
2023/06/28 08:00:05;;;;;;;6.45;3.85;;;22.80;96.50;;;;;;5042377;28;20218;-31
2023/06/28 08:02:35;;;;;;;6.35;3.17;;;22.80;96.60;;;;;;5042370;28;20199;-31
2023/06/28 08:05:03;;;;;;;5.50;3.22;;;22.90;96.60;;;;;;5042904;28;20719;-31
2023/06/28 08:07:30;;;;;;;9.20;3.35;;;22.90;96.60;;;;;;5041323;28;20212;-31
2023/06/28 08:10:00;;;;;;;9.98;3.20;;;22.90;96.60;;;;;;5041037;28;20285;-31
2023/06/28 08:12:28;;;;;;;7.95;3.47;;;22.90;96.50;;;;;;5042801;28;20270;-31
2023/06/28 08:14:55;;;;;;;7.30;3.30;;;23.00;96.50;;;;;;5042728;28;20200;-31
2023/06/28 08:17:25;;;;;;;6.55;3.20;;;23.00;96.50;;;;;;5042609;28;20580;-31
2023/06/28 08:19:54;;;;;;;9.45;3.20;;;23.00;96.50;;;;;;5042284;28;20193;-31
2023/06/28 08:22:25;;;;;;;4.93;2.60;;;23.10;96.50;;;;;;5042162;28;20619;-32
2023/06/28 08:24:54;;;;;;;7.80;3.03;;;23.10;96.60;;;;;;5040831;28;20215;-32
2023/06/28 08:27:23;;;;;;;5.72;2.63;;;23.20;96.60;;;;;;5042174;28;20222;-32
2023/06/28 08:29:54;;;;;;;6.80;2.97;;;23.20;96.60;;;;;;5042304;28;20204;-31
2023/06/28 08:32:27;;;;;;;6.95;2.53;;;23.30;96.70;;;;;;5042233;28;20303;-28
2023/06/28 08:34:54;;;;;;;3.67;2.40;;;23.40;96.70;;;;;;5041937;28;20238;-27
2023/06/28 08:37:21;;;;;;;7.90;2.97;;;23.50;96.70;;;;;;5040597;28;20603;-28
2023/06/28 08:39:48;;;;;;;5.35;2.97;;;23.50;96.80;;;;;;5040734;28;20726;-28
2023/06/28 08:42:18;;;;;;;6.03;2.78;;;23.60;96.80;;;;;;5040290;28;20342;-28
2023/06/28 08:44:55;;;;;;;5.85;2.85;;;23.70;96.80;;;;;;5042453;28;20293;-28
2023/06/28 08:47:27;;;;;;;7.50;2.97;;;23.70;96.70;;;;;;5040751;28;20768;-28
2023/06/28 08:49:55;;;;;;;6.40;2.70;;;23.70;96.70;;;;;;5042107;28;20208;-28
2023/06/28 08:52:24;;;;;;;8.80;3.13;;;23.80;96.70;;;;;;5042429;28;20224;-28
2023/06/28 08:54:57;;;;;;;7.40;2.80;;;23.80;96.70;;;;;;5055942;28;20223;-28
2023/06/28 08:57:32;;;;;;;5.97;2.88;;;23.90;96.80;;;;;;5040195;28;20206;-28
2023/06/28 09:00:01;;;;;;;6.78;3.00;;;24.00;96.80;;;;;;5040719;28;20425;-28
2023/06/28 09:02:33;;;;;;;7.50;2.90;;;24.00;96.80;;;;;;5042040;28;20220;-28
2023/06/28 09:05:02;;;;;;;4.80;2.70;;;24.00;96.80;;;;;;5040697;28;20289;-28
2023/06/28 09:07:33;;;;;;;6.28;3.03;;;24.10;96.90;;;;;;5040819;28;20224;-28
2023/06/28 09:10:03;;;;;;;7.50;2.67;;;24.20;96.90;;;;;;5042975;28;20295;-28
2023/06/28 09:12:33;;;;;;;5.97;2.88;;;24.30;97.00;;;;;;5043976;28;20224;-28
2023/06/28 09:15:08;;;;;;;5.40;2.85;;;24.40;97.10;;;;;;5044414;28;20211;-28
2023/06/28 09:17:38;;;;;;;8.75;3.20;;;24.50;97.10;;;;;;5045128;28;20550;-28
2023/06/28 09:20:19;;;;;;;10.68;3.50;;;24.60;97.10;;;;;;5045458;28;20713;-32
2023/06/28 09:22:57;;;;;;;8.95;3.00;;;24.70;97.00;;;;;;5059776;28;20244;-31
2023/06/28 09:25:32;;;;;;;5.15;2.80;;;24.70;97.10;;;;;;5044826;28;20208;-32
2023/06/28 09:27:59;;;;;;;7.38;2.95;;;24.70;97.10;;;;;;5045079;28;20739;-31
2023/06/28 09:30:27;;;;;;;6.00;2.90;;;24.80;97.20;;;;;;5043535;28;20216;-31
2023/06/28 09:32:55;;;;;;;5.47;2.65;;;24.90;97.20;;;;;;5043381;28;20239;-31
2023/06/28 09:35:23;;;;;;;8.85;3.13;;;25.00;97.30;;;;;;5043828;28;21043;-31
2023/06/28 09:38:04;;;;;;;6.72;3.35;;;25.00;97.20;;;;;;5043213;28;20231;-31
2023/06/28 09:40:35;;;;;;;5.90;3.03;;;25.10;97.20;;;;;;5042997;28;20335;-31
2023/06/28 09:43:03;;;;;;;6.85;3.30;;;25.20;97.30;;;;;;5044779;28;20686;-31
2023/06/28 09:45:36;;;;;;;8.90;3.05;;;25.20;97.30;;;;;;5044645;28;20200;-31
2023/06/28 09:48:06;;;;;;;6.57;3.58;;;25.30;97.20;;;;;;5044998;28;20313;-32
2023/06/28 09:50:44;;;;;;;6.78;3.03;;;25.30;97.20;;;;;;5060408;28;20595;-31
2023/06/28 09:53:19;;;;;;;6.38;3.58;;;25.30;97.10;;;;;;5059341;28;20625;-31
2023/06/28 09:55:49;;;;;;;7.10;3.38;;;25.30;97.10;;;;;;5042433;28;20776;-31
2023/06/28 09:58:18;;;;;;;7.82;3.20;;;25.30;97.20;;;;;;5043054;28;20200;-31
2023/06/28 10:00:52;;;;;;;5.72;2.88;;;25.40;97.20;;;;;;5042679;28;20310;-31
2023/06/28 10:03:24;;;;;;;6.65;3.42;;;25.40;97.10;;;;;;5044535;28;20287;-31
2023/06/28 10:05:56;;;;;;;5.55;3.10;;;25.50;97.20;;;;;;5044434;28;20659;-32
2023/06/28 10:08:26;;;;;;;5.93;3.08;;;25.50;97.30;;;;;;5042761;28;20200;-31
2023/06/28 10:10:55;;;;;;;5.97;3.60;;;25.60;97.30;;;;;;5044546;28;20574;-31
2023/06/28 10:13:26;;;;;;;8.73;3.83;;;25.60;97.30;;;;;;5058952;28;20224;-31
2023/06/28 10:16:05;;;;;;;6.90;3.63;;;25.70;97.30;;;;;;5042562;28;20210;-31
2023/06/28 10:18:32;;;;;;;6.93;3.47;;;25.70;97.30;;;;;;5044146;28;20682;-31
2023/06/28 10:21:00;;;;;;;7.03;3.75;;;25.80;97.30;;;;;;5058428;28;20242;-31
2023/06/28 10:23:35;;;;;;;9.00;3.88;;;25.80;97.30;;;;;;5058522;28;20228;-32
2023/06/28 10:26:04;;;;;;;7.10;4.10;;;25.90;97.40;;;;;;5044737;28;20212;-31
2023/06/28 10:28:39;;;;;;;7.50;4.05;;;25.90;97.40;;;;;;5044748;28;20560;-31
2023/06/28 10:31:07;;;;;;;8.02;4.50;;;25.90;97.40;;;;;;5043713;28;20642;-33
2023/06/28 10:33:39;;;;;;;7.40;4.45;;;26.00;97.40;;;;;;5044498;28;20377;-32
2023/06/28 10:36:09;;;;;;;7.90;4.78;;;26.10;97.40;;;;;;5044878;28;20495;-32
2023/06/28 10:38:38;;;;;;;8.23;5.20;;;26.10;97.40;;;;;;5044373;28;20209;-32
2023/06/28 10:41:05;;;;;;;7.82;4.80;;;26.10;97.40;;;;;;5042717;28;20200;-32
2023/06/28 10:43:38;;;;;;;9.07;4.53;;;26.20;97.50;;;;;;5044767;28;20214;-32
2023/06/28 10:46:26;;;;;;;11.70;4.72;;;26.20;97.50;;;;;;5058750;28;20563;-32
2023/06/28 10:48:55;;;;;;;8.07;4.75;;;26.30;97.60;;;;;;5058036;28;20203;-32
2023/06/28 10:51:27;;;;;;;11.77;5.50;;;26.40;97.90;;;;;;5043502;28;20204;-32
2023/06/28 10:54:06;;;;;;;9.50;5.05;;;26.50;97.60;;;;;;5058095;28;20211;-33
2023/06/28 10:56:59;;;;;;;6.95;4.22;;;26.50;97.60;;;;;;5043211;28;20238;-32
2023/06/28 10:59:26;;;;;;;9.80;6.20;;;26.60;97.70;;;;;;5042818;28;20196;-32
2023/06/28 11:01:56;;;;;;;10.00;5.38;;;26.60;97.70;;;;;;5042761;28;20677;-32
2023/06/28 11:04:28;;;;;;;8.93;5.57;;;26.70;97.70;;;;;;5043006;28;20628;-32
2023/06/28 11:07:15;;;;;;;8.00;5.18;;;26.70;97.70;;;;;;5043136;28;20599;-33
2023/06/28 11:10:14;;;;;;;12.60;5.40;;;26.80;97.70;;;;;;5042821;28;20206;-33
2023/06/28 11:12:50;;;;;;;8.38;5.35;;;26.80;97.60;;;;;;5042817;28;20707;-32
2023/06/28 11:15:27;;;;;;;9.80;6.10;;;26.80;97.80;;;;;;5058143;28;20643;-33
2023/06/28 11:18:08;;;;;;;10.02;5.72;;;26.90;97.80;;;;;;5041242;28;20566;-32
2023/06/28 11:20:54;;;;;;;9.73;5.53;;;26.90;97.80;;;;;;5040906;28;20338;-28
2023/06/28 11:23:37;;;;;;;10.68;5.57;;;26.90;97.80;;;;;;5025201;28;20242;-28
2023/06/28 11:26:16;;;;;;;10.70;5.53;;;27.00;97.80;;;;;;5040116;28;20212;-28
2023/06/28 11:28:50;;;;;;;8.88;5.63;;;27.10;97.80;;;;;;5042516;28;20204;-29
2023/06/28 11:31:24;;;;;;;11.63;6.20;;;27.10;97.80;;;;;;5057534;28;20205;-29
2023/06/28 11:33:54;;;;;;;9.25;5.60;;;27.10;97.80;;;;;;5042064;28;20203;-28
2023/06/28 11:36:27;;;;;;;12.43;6.85;;;27.20;97.90;;;;;;5042563;28;20240;-28
2023/06/28 11:38:55;;;;;;;12.35;6.32;;;27.20;97.80;;;;;;5042385;28;20250;-28
2023/06/28 11:41:25;;;;;;;10.43;6.50;;;27.30;97.90;;;;;;5040351;28;20200;-32
2023/06/28 11:44:01;;;;;;;9.10;6.70;;;27.30;97.90;;;;;;5043000;28;20783;-31
2023/06/28 11:46:35;;;;;;;12.93;7.30;;;27.40;98.00;;;;;;5040708;28;20657;-32
2023/06/28 11:49:03;;;;;;;9.95;6.85;;;27.40;97.90;;;;;;5041136;28;20208;-32
2023/06/28 11:51:31;;;;;;;12.18;7.53;;;27.40;97.80;;;;;;5040592;28;20242;-32
2023/06/28 11:53:59;;;;;;;11.50;7.38;;;27.40;97.80;;;;;;5042063;28;20208;-32
2023/06/28 11:56:39;;;;;;;10.30;7.28;;;27.50;97.80;;;;;;5042615;28;20748;-33
2023/06/28 11:59:12;;;;;;;12.75;7.63;;;27.50;97.70;;;;;;5041587;28;20258;-32
2023/06/28 12:01:43;;;;;;;10.15;7.18;;;27.50;97.70;;;;;;5040174;28;20208;-33
2023/06/28 12:04:20;;;;;;;13.77;8.23;;;27.50;97.70;;;;;;5042204;28;20210;-32
2023/06/28 12:06:52;;;;;;;15.40;7.40;;;27.50;97.50;;;;;;5042194;28;20701;-32
2023/06/28 12:09:27;;;;;;;13.90;7.43;;;27.50;97.50;;;;;;5040218;28;20208;-32
2023/06/28 12:12:04;;;;;;;14.77;8.35;;;27.40;97.40;;;;;;5042131;28;20301;-32
2023/06/28 12:14:39;;;;;;;13.00;7.75;;;27.40;97.30;;;;;;5057085;28;20585;-32
2023/06/28 12:17:09;;;;;;;21.60;8.82;;;27.30;97.30;;;;;;5040396;28;20195;-32
2023/06/28 12:19:40;;;;;;;19.45;8.95;;;27.20;97.30;;;;;;5056219;28;20359;-32
2023/06/28 12:22:10;;;;;;;12.65;8.50;;;27.20;97.30;;;;;;5040020;28;20815;-31
2023/06/28 12:24:37;;;;;;;14.85;8.50;;;27.20;97.30;;;;;;5056950;28;20608;-32
2023/06/28 12:27:06;;;;;;;14.07;8.05;;;27.10;97.30;;;;;;5039934;28;20213;-32
2023/06/28 12:29:38;;;;;;;12.60;8.82;;;27.10;97.30;;;;;;5056937;28;20208;-32
2023/06/28 12:32:06;;;;;;;13.13;8.60;;;27.10;97.30;;;;;;5042222;28;20712;-32
2023/06/28 12:34:39;;;;;;;12.40;8.68;;;27.10;97.60;;;;;;5041585;28;20223;-33
2023/06/28 12:37:10;;;;;;;10.75;8.27;;;27.10;97.40;;;;;;5040315;28;20218;-32
2023/06/28 12:39:44;;;;;;;23.90;10.88;;;27.10;97.40;;;;;;5042096;28;20686;-32
2023/06/28 12:42:22;;;;;;;23.55;10.73;;;27.10;97.30;;;;;;5039971;28;20200;-32
2023/06/28 12:44:51;;;;;;;16.83;9.52;;;27.10;97.30;;;;;;5042899;28;20208;-32
2023/06/28 12:47:22;;;;;;;34.75;13.07;;;27.10;97.40;;;;;;5045849;28;20647;-32
2023/06/28 12:49:52;;;;;;;21.15;10.43;;;27.10;97.40;;;;;;5045605;28;20231;-32
2023/06/28 12:52:24;;;;;;;26.38;11.63;;;27.20;97.50;;;;;;5060472;28;20216;-32
2023/06/28 12:54:55;;;;;;;21.95;10.50;;;27.20;97.40;;;;;;5028430;28;20704;-32
2023/06/28 12:57:23;;;;;;;14.25;9.45;;;27.20;97.40;;;;;;5060302;28;20204;-32
2023/06/28 12:59:54;;;;;;;13.23;9.45;;;27.20;97.40;;;;;;5044078;28;20208;-32
2023/06/28 13:02:25;;;;;;;16.63;9.57;;;27.20;97.30;;;;;;5043969;28;20325;-32